createdAt,value
2017-08-22T19:24:54.738Z,925.98
2017-08-22T19:25:22.809Z,925.94
2017-08-22T19:25:50.851Z,925.95
2017-08-22T19:26:19.689Z,925.94
2017-08-22T19:26:47.754Z,925.98
2017-08-22T19:27:17.382Z,925.99
2017-08-22T19:27:45.364Z,926.01
2017-08-22T19:28:14.108Z,925.96
2017-08-22T19:28:42.835Z,926
2017-08-22T19:29:11.586Z,925.95
2017-08-22T19:29:39.564Z,925.95
2017-08-22T19:30:07.625Z,925.98
2017-08-22T19:30:35.704Z,925.95
2017-08-22T19:31:03.771Z,926.01
2017-08-22T19:31:32.615Z,925.94
2017-08-22T19:32:00.576Z,925.95
2017-08-22T19:32:29.442Z,925.96
2017-08-22T19:32:57.234Z,925.97
2017-08-22T19:33:25.224Z,925.99
2017-08-22T19:33:53.280Z,926
2017-08-22T19:34:21.256Z,925.98
2017-08-22T19:34:49.273Z,925.97
2017-08-22T19:35:18.141Z,925.94
2017-08-22T19:35:47.160Z,925.95
2017-08-22T19:36:15.467Z,925.93
2017-08-22T19:36:45.473Z,925.93
2017-08-22T19:37:13.602Z,925.89
2017-08-22T19:37:42.946Z,925.96
2017-08-22T19:38:12.123Z,925.89
2017-08-22T19:38:40.873Z,925.97
2017-08-22T19:39:09.349Z,926.01
2017-08-22T19:39:39.339Z,925.94
2017-08-22T19:40:08.300Z,925.93
2017-08-22T19:40:36.335Z,925.97
2017-08-22T19:41:05.195Z,925.96
2017-08-22T19:41:33.201Z,925.98
2017-08-22T19:42:01.185Z,925.98
2017-08-22T19:42:29.054Z,926.05
2017-08-22T19:42:57.150Z,925.96
2017-08-22T19:43:25.210Z,926
2017-08-22T19:43:53.192Z,925.94
2017-08-22T19:44:21.179Z,926
2017-08-22T19:44:50.688Z,926
2017-08-22T19:45:18.500Z,925.93
2017-08-22T19:45:46.380Z,925.93
2017-08-22T19:46:15.180Z,925.94
2017-08-22T19:46:43.250Z,925.97
2017-08-22T19:47:11.228Z,925.97
2017-08-22T19:47:39.292Z,926.01
2017-08-22T19:48:08.864Z,925.97
2017-08-22T19:48:36.836Z,925.97
2017-08-22T19:49:04.806Z,926.04
2017-08-22T19:49:32.572Z,925.93
2017-08-22T19:50:00.529Z,926.01
2017-08-22T19:50:28.510Z,925.93
2017-08-22T19:50:56.472Z,925.94
2017-08-22T19:51:24.534Z,926
2017-08-22T19:51:52.504Z,925.95
2017-08-22T19:52:20.571Z,925.98
2017-08-22T19:52:49.436Z,925.96
2017-08-22T19:53:18.273Z,925.98
2017-08-22T19:53:47.107Z,925.99
2017-08-22T19:54:14.955Z,925.94
2017-08-22T19:54:43.783Z,925.95
2017-08-22T19:55:11.940Z,925.95
2017-08-22T19:55:40.006Z,925.9
2017-08-22T19:56:07.971Z,925.83
2017-08-22T19:56:35.930Z,925.91
2017-08-22T19:57:03.892Z,925.93
2017-08-22T19:57:31.861Z,925.92
2017-08-22T19:58:00.927Z,925.92
2017-08-22T19:58:28.991Z,925.96
2017-08-22T19:58:56.948Z,925.95
2017-08-22T19:59:24.835Z,925.94
2017-08-22T19:59:53.708Z,925.92
2017-08-22T20:00:21.670Z,925.97
2017-08-22T20:00:49.718Z,925.98
2017-08-22T20:01:18.149Z,925.98
2017-08-22T20:01:47.762Z,925.94
2017-08-22T20:02:15.636Z,926
2017-08-22T20:02:44.466Z,926.01
2017-08-22T20:03:12.515Z,926.02
2017-08-22T20:04:18.843Z,926.04
2017-08-22T20:04:47.591Z,926.05
2017-08-22T20:05:16.338Z,926.01
2017-08-22T20:05:45.170Z,925.96
2017-08-22T20:06:13.143Z,926.02
2017-08-22T20:06:41.234Z,926.01
2017-08-22T20:07:10.855Z,926.01
2017-08-22T20:07:38.721Z,926.03
2017-08-22T20:08:06.759Z,926.03
2017-08-22T20:08:34.621Z,925.98
2017-08-22T20:09:02.669Z,926.02
2017-08-22T20:09:30.721Z,926.05
2017-08-22T20:09:58.775Z,926.07
2017-08-22T20:10:26.935Z,926.07
2017-08-22T20:10:54.991Z,926.07
2017-08-22T20:11:23.735Z,926.06
2017-08-22T20:11:52.570Z,926.06
2017-08-22T20:12:20.636Z,926.14
2017-08-22T20:12:48.718Z,926.08
2017-08-22T20:13:16.759Z,926.09
2017-08-22T20:13:44.833Z,926.08
2017-08-22T20:14:12.822Z,926.09
2017-08-22T20:14:40.908Z,926.1
2017-08-22T20:15:08.966Z,926.12
2017-08-22T20:15:37.016Z,926.16
2017-08-22T20:16:05.766Z,926.15
2017-08-22T20:16:33.733Z,926.12
2017-08-22T20:17:01.800Z,926.13
2017-08-22T20:17:30.632Z,926.08
2017-08-22T20:18:00.264Z,926.1
2017-08-22T20:18:28.249Z,926.07
2017-08-22T20:18:56.552Z,926.05
2017-08-22T20:19:24.518Z,926.05
2017-08-22T20:19:52.482Z,926.05
2017-08-22T20:20:20.539Z,926.08
2017-08-22T20:20:48.504Z,926.07
2017-08-22T20:21:16.462Z,926.05
2017-08-22T20:21:44.310Z,926.05
2017-08-22T20:22:12.266Z,926.07
2017-08-22T20:22:40.114Z,926.07
2017-08-22T20:23:08.522Z,926.07
2017-08-22T20:23:36.383Z,926.06
2017-08-22T20:24:05.130Z,926.04
2017-08-22T20:24:33.918Z,926.07
2017-08-22T20:25:01.890Z,926.02
2017-08-22T20:25:30.102Z,926.07
2017-08-22T20:25:58.262Z,926.09
2017-08-22T20:26:27.016Z,926.03
2017-08-22T20:26:55.072Z,926.08
2017-08-22T20:27:23.122Z,926.1
2017-08-22T20:27:51.009Z,926.14
2017-08-22T20:28:18.984Z,926.16
2017-08-22T20:28:47.045Z,926.15
2017-08-22T20:29:15.128Z,926.17
2017-08-22T20:29:43.957Z,926.2
2017-08-22T20:30:12.804Z,926.17
2017-08-22T20:30:40.773Z,926.15
2017-08-22T20:31:08.830Z,926.23
2017-08-22T20:31:37.670Z,926.21
2017-08-22T20:32:05.734Z,926.24
2017-08-22T20:32:33.807Z,926.21
2017-08-22T20:33:01.875Z,926.24
2017-08-22T20:33:30.721Z,926.22
2017-08-22T20:33:58.661Z,926.15
2017-08-22T20:34:27.407Z,926.21
2017-08-22T20:34:56.149Z,926.26
2017-08-22T20:35:24.899Z,926.22
2017-08-22T20:35:52.942Z,926.16
2017-08-22T20:36:21.004Z,926.15
2017-08-22T20:36:48.959Z,926.19
2017-08-22T20:37:18.485Z,926.18
2017-08-22T20:37:47.346Z,926.13
2017-08-22T20:38:16.099Z,926.18
2017-08-22T20:38:44.142Z,926.12
2017-08-22T20:39:12.119Z,926.07
2017-08-22T20:39:40.168Z,926.11
2017-08-22T20:40:08.135Z,926.09
2017-08-22T20:40:36.243Z,926.13
2017-08-22T20:41:04.976Z,926.07
2017-08-22T20:41:33.807Z,926.1
2017-08-22T20:42:03.329Z,926.1
2017-08-22T20:42:31.377Z,926.07
2017-08-22T20:43:37.530Z,926.02
2017-08-22T20:44:05.599Z,926.14
2017-08-22T20:44:33.648Z,926.12
2017-08-22T20:45:01.700Z,926.07
2017-08-22T20:45:29.747Z,926.09
2017-08-22T20:45:59.328Z,926.09
2017-08-22T20:46:27.404Z,926.1
2017-08-22T20:46:55.189Z,926.1
2017-08-22T20:47:23.235Z,926.12
2017-08-22T20:47:52.083Z,926.11
2017-08-22T20:48:20.915Z,926.08
2017-08-22T20:48:48.973Z,926.06
2017-08-22T20:49:16.945Z,926.1
2017-08-22T20:49:44.914Z,926.12
2017-08-22T20:50:12.858Z,926.07
2017-08-22T20:50:40.898Z,926.08
2017-08-22T20:51:09.637Z,926.07
2017-08-22T20:51:39.247Z,926.05
2017-08-22T20:52:07.296Z,926.09
2017-08-22T20:52:35.266Z,926.05
2017-08-22T20:53:03.232Z,926.05
2017-08-22T20:53:31.207Z,926.08
2017-08-22T20:53:59.177Z,926.08
2017-08-22T20:54:27.319Z,926.11
2017-08-22T20:54:55.270Z,926.1
2017-08-22T20:55:25.032Z,926.07
2017-08-22T20:55:55.165Z,926.03
2017-08-22T20:56:23.046Z,925.99
2017-08-22T20:56:51.001Z,926.06
2017-08-22T20:57:20.525Z,926.03
2017-08-22T20:57:48.391Z,926.06
2017-08-22T20:58:16.448Z,926.06
2017-08-22T20:58:44.506Z,926.04
2017-08-22T20:59:12.561Z,926.07
2017-08-22T20:59:40.602Z,926.07
2017-08-22T21:00:08.554Z,926.05
2017-08-22T21:00:37.295Z,926.04
2017-08-22T21:01:06.123Z,926.05
2017-08-22T21:01:34.082Z,926.07
2017-08-22T21:02:02.121Z,926.07
2017-08-22T21:02:29.901Z,926.1
2017-08-22T21:02:57.767Z,926.1
2017-08-22T21:03:25.730Z,926.06
2017-08-22T21:03:56.132Z,926.06
2017-08-22T21:04:24.170Z,926.09
2017-08-22T21:04:53.017Z,926.11
2017-08-22T21:05:21.066Z,926.04
2017-08-22T21:05:49.912Z,926.06
2017-08-22T21:06:18.751Z,926.07
2017-08-22T21:06:46.801Z,926.09
2017-08-22T21:07:15.647Z,926.09
2017-08-22T21:07:43.559Z,926.05
2017-08-22T21:08:11.613Z,926.11
2017-08-22T21:08:39.667Z,926.15
2017-08-22T21:09:07.629Z,926.13
2017-08-22T21:09:35.785Z,926.09
2017-08-22T21:10:03.836Z,926.11
2017-08-22T21:10:31.898Z,926.15
2017-08-22T21:10:59.923Z,926.15
2017-08-22T21:11:28.664Z,926.18
2017-08-22T21:11:56.631Z,926.2
2017-08-22T21:12:24.680Z,926.18
2017-08-22T21:12:52.639Z,926.22
2017-08-22T21:13:21.452Z,926.2
2017-08-22T21:13:49.491Z,926.24
2017-08-22T21:14:17.541Z,926.25
2017-08-22T21:14:45.501Z,926.22
2017-08-22T21:15:14.320Z,926.2
2017-08-22T21:15:42.285Z,926.25
2017-08-22T21:16:10.341Z,926.24
2017-08-22T21:16:39.079Z,926.21
2017-08-22T21:17:07.833Z,926.24
2017-08-22T21:17:35.889Z,926.23
2017-08-22T21:18:04.720Z,926.2
2017-08-22T21:18:32.782Z,926.21
2017-08-22T21:19:01.632Z,926.2
2017-08-22T21:19:29.681Z,926.25
2017-08-22T21:19:57.716Z,926.25
2017-08-22T21:20:26.550Z,926.27
2017-08-22T21:20:54.599Z,926.3
2017-08-22T21:21:24.215Z,926.32
2017-08-22T21:21:53.239Z,926.28
2017-08-22T21:22:59.570Z,926.2
2017-08-22T21:23:27.613Z,926.31
2017-08-22T21:23:55.651Z,926.3
2017-08-22T21:24:24.478Z,926.3
2017-08-22T21:24:52.529Z,926.36
2017-08-22T21:25:20.586Z,926.32
2017-08-22T21:25:48.735Z,926.31
2017-08-22T21:26:16.776Z,926.36
2017-08-22T21:26:45.506Z,926.3
2017-08-22T21:27:13.478Z,926.34
2017-08-22T21:27:41.523Z,926.32
2017-08-22T21:28:09.576Z,926.33
2017-08-22T21:28:37.619Z,926.33
2017-08-22T21:29:05.666Z,926.33
2017-08-22T21:29:33.617Z,926.33
2017-08-22T21:30:02.353Z,926.34
2017-08-22T21:30:30.221Z,926.36
2017-08-22T21:30:58.266Z,926.34
2017-08-22T21:31:26.516Z,926.35
2017-08-22T21:31:54.568Z,926.44
2017-08-22T21:32:23.399Z,926.37
2017-08-22T21:32:52.147Z,926.36
2017-08-22T21:33:20.203Z,926.34
2017-08-22T21:33:48.245Z,926.39
2017-08-22T21:34:17.077Z,926.41
2017-08-22T21:34:45.123Z,926.41
2017-08-22T21:35:13.954Z,926.41
2017-08-22T21:35:41.939Z,926.42
2017-08-22T21:36:09.905Z,926.41
2017-08-22T21:36:37.665Z,926.41
2017-08-22T21:37:05.720Z,926.42
2017-08-22T21:37:33.681Z,926.39
2017-08-22T21:38:02.428Z,926.4
2017-08-22T21:38:30.479Z,926.36
2017-08-22T21:38:59.211Z,926.35
2017-08-22T21:39:27.079Z,926.37
2017-08-22T21:39:54.952Z,926.43
2017-08-22T21:40:23.771Z,926.42
2017-08-22T21:40:53.599Z,926.38
2017-08-22T21:41:21.644Z,926.38
2017-08-22T21:41:50.477Z,926.41
2017-08-22T21:42:18.523Z,926.36
2017-08-22T21:42:46.571Z,926.36
2017-08-22T21:43:14.529Z,926.35
2017-08-22T21:43:42.573Z,926.35
2017-08-22T21:44:10.540Z,926.37
2017-08-22T21:44:39.375Z,926.33
2017-08-22T21:45:07.433Z,926.37
2017-08-22T21:45:36.267Z,926.37
2017-08-22T21:46:04.317Z,926.34
2017-08-22T21:46:32.285Z,926.36
2017-08-22T21:47:01.120Z,926.36
2017-08-22T21:47:29.957Z,926.41
2017-08-22T21:47:57.916Z,926.39
2017-08-22T21:48:27.533Z,926.41
2017-08-22T21:48:55.586Z,926.43
2017-08-22T21:49:23.603Z,926.44
2017-08-22T21:49:52.433Z,926.41
2017-08-22T21:50:21.275Z,926.39
2017-08-22T21:50:50.025Z,926.43
2017-08-22T21:51:18.068Z,926.42
2017-08-22T21:51:46.026Z,926.33
2017-08-22T21:52:13.989Z,926.4
2017-08-22T21:52:42.029Z,926.35
2017-08-22T21:53:10.074Z,926.3
2017-08-22T21:53:38.114Z,926.4
2017-08-22T21:54:06.062Z,926.33
2017-08-22T21:54:34.105Z,926.36
2017-08-22T21:55:02.941Z,926.34
2017-08-22T21:55:30.990Z,926.32
2017-08-22T21:55:59.979Z,926.35
2017-08-22T21:56:28.034Z,926.35
2017-08-22T21:56:56.008Z,926.4
2017-08-22T21:57:23.959Z,926.41
2017-08-22T21:57:51.924Z,926.38
2017-08-22T21:58:20.082Z,926.35
2017-08-22T21:58:50.680Z,926.36
2017-08-22T21:59:18.620Z,926.36
2017-08-22T21:59:46.656Z,926.37
2017-08-22T22:00:14.703Z,926.39
2017-08-22T22:00:44.312Z,926.46
2017-08-22T22:01:13.133Z,926.36
2017-08-22T22:02:19.682Z,926.41
2017-08-22T22:02:47.729Z,926.43
2017-08-22T22:03:16.543Z,926.44
2017-08-22T22:03:45.587Z,926.47
2017-08-22T22:04:13.544Z,926.46
2017-08-22T22:04:41.598Z,926.46
2017-08-22T22:05:11.213Z,926.44
2017-08-22T22:05:39.171Z,926.46
2017-08-22T22:06:07.120Z,926.48
2017-08-22T22:06:34.989Z,926.47
2017-08-22T22:07:03.032Z,926.48
2017-08-22T22:07:30.984Z,926.48
2017-08-22T22:07:59.031Z,926.49
2017-08-22T22:08:27.086Z,926.5
2017-08-22T22:08:55.037Z,926.49
2017-08-22T22:09:24.554Z,926.5
2017-08-22T22:09:53.405Z,926.51
2017-08-22T22:10:22.043Z,926.53
2017-08-22T22:10:50.874Z,926.52
2017-08-22T22:11:19.026Z,926.51
2017-08-22T22:11:47.077Z,926.56
2017-08-22T22:12:15.052Z,926.51
2017-08-22T22:12:43.110Z,926.47
2017-08-22T22:13:11.158Z,926.52
2017-08-22T22:13:39.106Z,926.59
2017-08-22T22:14:07.167Z,926.55
2017-08-22T22:14:35.988Z,926.59
2017-08-22T22:15:04.048Z,926.58
2017-08-22T22:15:33.570Z,926.63
2017-08-22T22:16:01.444Z,926.6
2017-08-22T22:16:29.494Z,926.62
2017-08-22T22:16:58.322Z,926.6
2017-08-22T22:17:26.380Z,926.55
2017-08-22T22:17:54.436Z,926.57
2017-08-22T22:18:23.263Z,926.6
2017-08-22T22:18:51.314Z,926.59
2017-08-22T22:19:20.146Z,926.55
2017-08-22T22:19:48.184Z,926.62
2017-08-22T22:20:16.230Z,926.59
2017-08-22T22:20:44.090Z,926.6
2017-08-22T22:21:12.094Z,926.63
2017-08-22T22:21:40.053Z,926.64
2017-08-22T22:22:08.099Z,926.67
2017-08-22T22:22:36.933Z,926.65
2017-08-22T22:23:04.979Z,926.67
2017-08-22T22:23:33.046Z,926.67
2017-08-22T22:24:01.007Z,926.66
2017-08-22T22:24:29.837Z,926.66
2017-08-22T22:24:57.753Z,926.7
2017-08-22T22:25:26.501Z,926.65
2017-08-22T22:25:54.564Z,926.63
2017-08-22T22:26:22.673Z,926.7
2017-08-22T22:26:50.626Z,926.68
2017-08-22T22:27:18.680Z,926.71
2017-08-22T22:27:46.737Z,926.73
2017-08-22T22:28:14.606Z,926.77
2017-08-22T22:28:44.217Z,926.73
2017-08-22T22:29:13.047Z,926.74
2017-08-22T22:29:42.667Z,926.78
2017-08-22T22:30:11.506Z,926.77
2017-08-22T22:30:40.335Z,926.78
2017-08-22T22:31:09.171Z,926.75
2017-08-22T22:31:37.133Z,926.73
2017-08-22T22:32:05.862Z,926.72
2017-08-22T22:32:33.900Z,926.79
2017-08-22T22:33:02.269Z,926.72
2017-08-22T22:33:31.005Z,926.75
2017-08-22T22:33:59.054Z,926.73
2017-08-22T22:34:26.926Z,926.74
2017-08-22T22:34:54.983Z,926.76
2017-08-22T22:35:23.821Z,926.77
2017-08-22T22:35:51.787Z,926.77
2017-08-22T22:36:19.775Z,926.75
2017-08-22T22:36:47.636Z,926.72
2017-08-22T22:37:15.739Z,926.8
2017-08-22T22:37:43.792Z,926.77
2017-08-22T22:38:11.842Z,926.78
2017-08-22T22:38:39.806Z,926.79
2017-08-22T22:39:07.827Z,926.81
2017-08-22T22:39:35.874Z,926.86
2017-08-22T22:40:04.615Z,926.86
2017-08-22T22:40:32.667Z,926.84
2017-08-22T22:41:39.161Z,926.81
2017-08-22T22:42:07.202Z,926.89
2017-08-22T22:42:35.238Z,926.88
2017-08-22T22:43:04.064Z,926.86
2017-08-22T22:43:32.911Z,926.87
2017-08-22T22:44:00.888Z,926.91
2017-08-22T22:44:29.724Z,926.9
2017-08-22T22:44:57.772Z,926.92
2017-08-22T22:45:25.819Z,926.92
2017-08-22T22:45:53.781Z,926.94
2017-08-22T22:46:21.824Z,926.93
2017-08-22T22:46:49.779Z,926.89
2017-08-22T22:47:17.824Z,926.9
2017-08-22T22:47:45.780Z,926.88
2017-08-22T22:48:13.830Z,926.94
2017-08-22T22:48:41.867Z,926.96
2017-08-22T22:49:09.816Z,926.9
2017-08-22T22:49:38.571Z,926.97
2017-08-22T22:50:06.620Z,926.97
2017-08-22T22:50:34.582Z,926.98
2017-08-22T22:51:02.653Z,926.93
2017-08-22T22:51:30.621Z,926.97
2017-08-22T22:51:59.458Z,926.97
2017-08-22T22:52:27.504Z,927.02
2017-08-22T22:52:55.544Z,927
2017-08-22T22:53:23.599Z,927.03
2017-08-22T22:53:51.645Z,927.08
2017-08-22T22:54:19.698Z,927.02
2017-08-22T22:54:48.529Z,926.99
2017-08-22T22:55:18.051Z,926.98
2017-08-22T22:55:46.884Z,927.06
2017-08-22T22:56:15.709Z,927.02
2017-08-22T22:56:43.912Z,927.06
2017-08-22T22:57:11.965Z,927.05
2017-08-22T22:57:40.006Z,927.05
2017-08-22T22:58:08.050Z,927.04
2017-08-22T22:58:36.091Z,927.02
2017-08-22T22:59:04.139Z,927.06
2017-08-22T22:59:32.186Z,927.06
2017-08-22T23:00:00.355Z,927.05
2017-08-22T23:00:28.326Z,927.07
2017-08-22T23:00:56.370Z,927.06
2017-08-22T23:01:24.418Z,927.07
2017-08-22T23:01:52.469Z,927.03
2017-08-22T23:02:20.500Z,927.02
2017-08-22T23:02:49.340Z,927.05
2017-08-22T23:03:18.962Z,927.08
2017-08-22T23:03:47.710Z,927.05
2017-08-22T23:04:15.760Z,927.08
2017-08-22T23:04:43.808Z,927.04
2017-08-22T23:05:11.870Z,927.08
2017-08-22T23:05:41.490Z,927.06
2017-08-22T23:06:09.537Z,927.06
2017-08-22T23:06:37.579Z,927.05
2017-08-22T23:07:06.328Z,927.08
2017-08-22T23:07:34.383Z,927.12
2017-08-22T23:08:03.206Z,927.06
2017-08-22T23:08:32.041Z,927.04
2017-08-22T23:09:00.005Z,927.04
2017-08-22T23:09:28.059Z,927.08
2017-08-22T23:09:56.885Z,927.11
2017-08-22T23:10:25.622Z,927.1
2017-08-22T23:10:53.575Z,926.99
2017-08-22T23:11:21.606Z,927.06
2017-08-22T23:11:50.584Z,927.08
2017-08-22T23:12:19.325Z,927.1
2017-08-22T23:12:47.363Z,927.1
2017-08-22T23:13:16.101Z,927.13
2017-08-22T23:13:44.152Z,927.08
2017-08-22T23:14:12.207Z,927.08
2017-08-22T23:14:40.168Z,927.11
2017-08-22T23:15:08.216Z,927.08
2017-08-22T23:15:36.965Z,927.05
2017-08-22T23:16:04.920Z,927.06
2017-08-22T23:16:33.752Z,927.07
2017-08-22T23:17:01.809Z,927.11
2017-08-22T23:17:29.851Z,927.15
2017-08-22T23:17:58.669Z,927.13
2017-08-22T23:18:27.184Z,927.15
2017-08-22T23:18:56.761Z,927.13
2017-08-22T23:19:24.629Z,927.11
2017-08-22T23:19:53.448Z,927.1
2017-08-22T23:20:59.782Z,927.08
2017-08-22T23:21:28.526Z,927.13
2017-08-22T23:21:57.340Z,927.11
2017-08-22T23:22:26.084Z,927.07
2017-08-22T23:22:54.914Z,927.09
2017-08-22T23:23:23.026Z,927.11
2017-08-22T23:23:51.857Z,927.11
2017-08-22T23:24:19.907Z,927.1
2017-08-22T23:24:48.730Z,927.16
2017-08-22T23:25:16.783Z,927.17
2017-08-22T23:25:44.839Z,927.13
2017-08-22T23:26:13.667Z,927.12
2017-08-22T23:26:41.816Z,927.1
2017-08-22T23:27:10.553Z,927.08
2017-08-22T23:27:39.384Z,927.15
2017-08-22T23:28:07.248Z,927.16
2017-08-22T23:28:36.770Z,927.17
2017-08-22T23:29:04.807Z,927.22
2017-08-22T23:29:33.549Z,927.19
2017-08-22T23:30:02.383Z,927.17
2017-08-22T23:30:30.434Z,927.2
2017-08-22T23:30:58.514Z,927.19
2017-08-22T23:31:27.262Z,927.16
2017-08-22T23:31:55.211Z,927.16
2017-08-22T23:32:23.080Z,927.2
2017-08-22T23:32:51.912Z,927.15
2017-08-22T23:33:19.960Z,927.17
2017-08-22T23:33:47.837Z,927.17
2017-08-22T23:34:15.882Z,927.28
2017-08-22T23:34:45.510Z,927.2
2017-08-22T23:35:14.342Z,927.22
2017-08-22T23:35:42.312Z,927.19
2017-08-22T23:36:10.372Z,927.25
2017-08-22T23:36:38.424Z,927.25
2017-08-22T23:37:07.251Z,927.26
2017-08-22T23:37:36.083Z,927.28
2017-08-22T23:38:04.917Z,927.26
2017-08-22T23:38:34.528Z,927.27
2017-08-22T23:39:02.581Z,927.24
2017-08-22T23:39:31.310Z,927.25
2017-08-22T23:40:00.142Z,927.3
2017-08-22T23:40:29.664Z,927.26
2017-08-22T23:40:58.495Z,927.26
2017-08-22T23:41:27.334Z,927.31
2017-08-22T23:41:55.479Z,927.31
2017-08-22T23:42:23.445Z,927.36
2017-08-22T23:42:51.802Z,927.3
2017-08-22T23:43:21.428Z,927.33
2017-08-22T23:43:49.484Z,927.25
2017-08-22T23:44:18.311Z,927.26
2017-08-22T23:44:46.284Z,927.26
2017-08-22T23:45:14.340Z,927.2
2017-08-22T23:45:43.167Z,927.29
2017-08-22T23:46:11.232Z,927.25
2017-08-22T23:46:39.190Z,927.29
2017-08-22T23:47:07.063Z,927.28
2017-08-22T23:47:35.023Z,927.23
2017-08-22T23:48:02.985Z,927.28
2017-08-22T23:48:32.513Z,927.25
2017-08-22T23:49:00.570Z,927.29
2017-08-22T23:49:29.405Z,927.25
2017-08-22T23:49:57.454Z,927.27
2017-08-22T23:50:25.500Z,927.28
2017-08-22T23:50:53.527Z,927.24
2017-08-22T23:51:23.137Z,927.27
2017-08-22T23:51:51.000Z,927.22
2017-08-22T23:52:19.040Z,927.24
2017-08-22T23:52:47.089Z,927.25
2017-08-22T23:53:18.268Z,927.2
2017-08-22T23:53:46.318Z,927.29
2017-08-22T23:54:15.055Z,927.29
2017-08-22T23:54:43.802Z,927.29
2017-08-22T23:55:11.876Z,927.29
2017-08-22T23:55:40.687Z,927.27
2017-08-22T23:56:08.740Z,927.28
2017-08-22T23:56:38.360Z,927.3
2017-08-22T23:57:06.526Z,927.24
2017-08-22T23:57:34.566Z,927.3
2017-08-22T23:58:03.291Z,927.29
2017-08-22T23:58:31.337Z,927.28
2017-08-22T23:58:59.386Z,927.22
2017-08-22T23:59:27.426Z,927.27
